createdAt,value
2018-07-04T07:38:14.738Z,275.63
2018-07-04T07:40:24.278Z,275.63
2018-07-04T07:41:24.261Z,275.63
2018-07-04T07:43:23.774Z,281.25
2018-07-04T07:44:23.718Z,281.25
2018-07-04T07:46:25.182Z,292.50
2018-07-04T07:47:25.734Z,298.13
2018-07-04T07:49:27.657Z,298.13
2018-07-04T07:50:26.711Z,298.13
2018-07-04T07:52:26.141Z,303.75
2018-07-04T07:53:26.372Z,303.75
2018-07-04T07:55:31.619Z,309.38
2018-07-04T07:56:30.659Z,309.38
2018-07-04T07:58:31.233Z,331.88
2018-07-04T07:59:31.630Z,371.25
2018-07-04T08:01:33.117Z,450.00
2018-07-04T08:02:32.299Z,450.00
2018-07-04T08:04:32.823Z,410.63
2018-07-04T08:05:32.837Z,388.13
2018-07-04T08:07:33.361Z,376.88
2018-07-04T08:08:34.281Z,365.63
2018-07-04T08:10:40.379Z,343.13
2018-07-04T08:11:38.462Z,331.88
2018-07-04T08:13:40.832Z,309.38
2018-07-04T08:14:39.803Z,309.38
2018-07-04T08:16:45.775Z,298.13
2018-07-04T08:17:43.773Z,292.50
2018-07-04T08:19:45.287Z,298.13
2018-07-04T08:20:44.742Z,320.63
2018-07-04T08:22:44.815Z,365.63
2018-07-04T08:23:46.714Z,399.38
2018-07-04T08:25:47.286Z,416.25
2018-07-04T08:26:45.424Z,438.75
2018-07-04T08:28:46.840Z,495.00
2018-07-04T08:29:45.923Z,495.00
2018-07-04T08:31:46.836Z,495.00
2018-07-04T08:32:46.468Z,500.63
2018-07-04T08:34:47.857Z,523.13
2018-07-04T08:35:46.895Z,534.38
2018-07-04T08:37:49.706Z,540.00
2018-07-04T08:38:47.520Z,517.50
2018-07-04T08:40:48.021Z,466.88
2018-07-04T08:41:49.069Z,450.00
2018-07-04T08:43:48.530Z,427.50
2018-07-04T08:44:48.543Z,427.50
2018-07-04T08:46:49.498Z,421.88
2018-07-04T08:47:50.113Z,416.25
2018-07-04T08:49:51.124Z,376.88
2018-07-04T08:50:49.452Z,348.75
2018-07-04T08:52:50.932Z,320.63
2018-07-04T08:53:50.017Z,309.38
2018-07-04T08:55:50.409Z,303.75
2018-07-04T08:56:50.363Z,298.13
2018-07-04T08:58:51.364Z,292.50
2018-07-04T08:59:50.895Z,292.50
2018-07-04T09:01:52.316Z,292.50
2018-07-04T09:02:52.366Z,298.13
2018-07-04T09:04:51.848Z,298.13
2018-07-04T09:05:52.043Z,298.13
2018-07-04T09:07:53.326Z,281.25
2018-07-04T09:08:53.886Z,275.63
2018-07-04T09:10:53.724Z,264.38
2018-07-04T09:11:53.844Z,258.75
2018-07-04T09:13:54.684Z,241.88
2018-07-04T09:14:54.205Z,236.25
2018-07-04T09:16:54.687Z,219.38
2018-07-04T09:17:54.690Z,213.75
2018-07-04T09:19:55.214Z,196.88
2018-07-04T09:20:57.119Z,191.25
2018-07-04T09:22:55.645Z,180.00
2018-07-04T09:23:55.657Z,174.38
2018-07-04T09:25:56.179Z,163.13
2018-07-04T09:26:57.172Z,157.50
2018-07-04T09:28:57.592Z,146.25
2018-07-04T09:29:57.613Z,146.25
2018-07-04T09:31:52.619Z,135.00
2018-07-04T09:32:52.572Z,135.00
2018-07-04T09:34:51.108Z,129.38
2018-07-04T09:35:50.573Z,129.38
2018-07-04T09:37:46.561Z,129.38
2018-07-04T09:38:46.603Z,135.00
2018-07-04T09:40:45.523Z,135.00
2018-07-04T09:41:44.516Z,135.00
2018-07-04T09:43:42.482Z,135.00
2018-07-04T09:44:42.536Z,135.00
2018-07-04T09:46:40.464Z,140.63
2018-07-04T09:47:40.492Z,140.63
2018-07-04T09:49:38.498Z,151.88
2018-07-04T09:50:38.933Z,157.50
2018-07-04T09:52:36.382Z,168.75
2018-07-04T09:53:37.399Z,174.38
2018-07-04T09:55:34.558Z,174.38
2018-07-04T09:56:35.378Z,180.00
2018-07-04T09:58:30.473Z,185.63
2018-07-04T09:59:30.486Z,191.25
2018-07-04T10:01:28.996Z,196.88
2018-07-04T10:02:28.993Z,202.50
2018-07-04T10:04:26.490Z,225.00
2018-07-04T10:05:27.313Z,225.00
2018-07-04T10:07:24.383Z,241.88
2018-07-04T10:08:25.370Z,253.13
2018-07-04T10:10:24.891Z,270.00
2018-07-04T10:11:24.850Z,281.25
2018-07-04T10:13:23.803Z,286.88
2018-07-04T10:14:22.782Z,286.88
2018-07-04T10:16:21.754Z,275.63
2018-07-04T10:17:20.750Z,264.38
2018-07-04T10:19:19.742Z,241.88
2018-07-04T10:20:18.707Z,241.88
2018-07-04T10:22:20.699Z,236.25
2018-07-04T10:23:19.166Z,236.25
2018-07-04T10:25:20.168Z,247.50
2018-07-04T10:26:19.740Z,253.13
2018-07-04T10:28:18.129Z,270.00
2018-07-04T10:29:18.699Z,275.63
2018-07-04T10:31:19.763Z,298.13
2018-07-04T10:32:19.348Z,303.75
2018-07-04T10:34:19.771Z,331.88
2018-07-04T10:35:19.736Z,348.75
2018-07-04T10:37:20.205Z,388.13
2018-07-04T10:38:21.086Z,405.00
2018-07-04T10:40:18.706Z,427.50
2018-07-04T10:41:18.181Z,433.13
2018-07-04T10:43:19.116Z,444.38
2018-07-04T10:44:18.658Z,455.63
2018-07-04T10:46:20.109Z,472.50
2018-07-04T10:47:19.611Z,461.25
2018-07-04T10:49:18.067Z,466.88
2018-07-04T10:50:18.094Z,461.25
2018-07-04T10:52:17.746Z,450.00
2018-07-04T10:53:18.235Z,455.63
2018-07-04T10:55:18.147Z,450.00
2018-07-04T10:56:18.659Z,455.63
2018-07-04T10:58:18.541Z,466.88
2018-07-04T10:59:18.699Z,483.75
2018-07-04T11:01:19.048Z,511.88
2018-07-04T11:02:20.017Z,500.63
2018-07-04T11:04:19.544Z,500.63
2018-07-04T11:05:19.584Z,495.00
2018-07-04T11:07:20.016Z,433.13
2018-07-04T11:08:21.084Z,393.75
2018-07-04T11:10:21.515Z,331.88
2018-07-04T11:11:20.518Z,320.63
2018-07-04T11:13:21.970Z,286.88
2018-07-04T11:14:22.086Z,270.00
2018-07-04T11:16:23.424Z,275.63
2018-07-04T11:17:22.468Z,286.88
2018-07-04T11:19:22.892Z,303.75
2018-07-04T11:20:22.982Z,315.00
2018-07-04T11:22:25.022Z,337.50
2018-07-04T11:23:24.318Z,337.50
2018-07-04T11:25:23.954Z,331.88
2018-07-04T11:26:23.822Z,337.50
2018-07-04T11:28:24.329Z,354.38
2018-07-04T11:29:25.844Z,365.63
2018-07-04T11:31:26.272Z,405.00
2018-07-04T11:32:25.588Z,410.63
2018-07-04T11:34:28.050Z,421.88
2018-07-04T11:35:28.070Z,427.50
2018-07-04T11:37:30.512Z,433.13
2018-07-04T11:38:27.676Z,433.13
2018-07-04T11:40:28.076Z,427.50
2018-07-04T11:41:28.917Z,416.25
2018-07-04T11:43:28.987Z,399.38
2018-07-04T11:44:28.495Z,388.13
2018-07-04T11:46:28.929Z,365.63
2018-07-04T11:47:28.940Z,354.38
2018-07-04T11:49:26.957Z,326.25
2018-07-04T11:50:27.920Z,309.38
2018-07-04T11:52:25.397Z,292.50
2018-07-04T11:53:24.915Z,286.88
2018-07-04T11:55:22.860Z,286.88
2018-07-04T11:56:22.876Z,298.13
2018-07-04T11:58:21.343Z,320.63
2018-07-04T11:59:20.969Z,337.50
2018-07-04T12:01:18.941Z,365.63
2018-07-04T12:02:18.928Z,376.88
2018-07-04T12:04:16.955Z,382.50
2018-07-04T12:05:16.939Z,388.13
2018-07-04T12:07:14.895Z,393.75
2018-07-04T12:08:16.874Z,393.75
2018-07-04T12:10:12.880Z,388.13
2018-07-04T12:11:12.784Z,382.50
2018-07-04T12:13:07.829Z,376.88
2018-07-04T12:14:07.857Z,376.88
2018-07-04T12:16:06.820Z,360.00
2018-07-04T12:17:05.837Z,348.75
2018-07-04T12:19:03.794Z,326.25
2018-07-04T12:20:03.792Z,320.63
2018-07-04T12:22:01.946Z,303.75
2018-07-04T12:23:01.970Z,292.50
2018-07-04T12:24:58.420Z,270.00
2018-07-04T12:25:57.927Z,264.38
2018-07-04T12:27:55.879Z,247.50
2018-07-04T12:28:55.874Z,241.88
2018-07-04T12:30:54.393Z,236.25
2018-07-04T12:31:54.899Z,230.63
2018-07-04T12:33:50.313Z,225.00
2018-07-04T12:34:50.851Z,225.00
2018-07-04T12:36:45.800Z,219.38
2018-07-04T12:37:45.802Z,213.75
2018-07-04T12:39:41.785Z,208.13
2018-07-04T12:40:42.781Z,202.50
2018-07-04T12:42:39.737Z,196.88
2018-07-04T12:43:40.253Z,196.88
2018-07-04T12:45:39.515Z,191.25
2018-07-04T12:46:35.714Z,185.63
2018-07-04T12:48:32.693Z,180.00
2018-07-04T12:49:31.644Z,180.00
2018-07-04T12:51:27.624Z,180.00
2018-07-04T12:52:27.623Z,174.38
2018-07-04T12:54:23.592Z,168.75
2018-07-04T12:55:23.574Z,168.75
2018-07-04T12:57:19.596Z,163.13
2018-07-04T12:58:19.534Z,163.13
2018-07-04T13:00:17.557Z,157.50
2018-07-04T13:01:17.529Z,157.50
2018-07-04T13:03:20.557Z,151.88
2018-07-04T13:04:21.422Z,151.88
2018-07-04T13:06:21.207Z,151.88
2018-07-04T13:07:20.138Z,151.88
2018-07-04T13:09:52.884Z,151.88
2018-07-04T13:12:51.495Z,151.88
2018-07-04T13:13:51.507Z,151.88
2018-07-04T13:15:48.622Z,146.25
2018-07-04T13:16:48.610Z,146.25
2018-07-04T13:18:49.593Z,146.25
2018-07-04T13:19:49.103Z,140.63
2018-07-04T13:21:49.568Z,140.63
2018-07-04T13:22:50.096Z,146.25
2018-07-04T13:24:51.015Z,146.25
2018-07-04T13:25:52.534Z,146.25
2018-07-04T13:27:48.083Z,151.88
2018-07-04T13:30:06.844Z,151.88
2018-07-04T13:31:07.842Z,157.50
2018-07-04T13:33:07.901Z,163.13
2018-07-04T13:34:07.379Z,168.75
2018-07-04T13:36:08.837Z,174.38
2018-07-04T13:37:08.822Z,180.00
2018-07-04T13:39:09.816Z,180.00
2018-07-04T13:40:09.917Z,185.63
2018-07-04T13:42:09.357Z,202.50
2018-07-04T13:43:08.931Z,202.50
2018-07-04T13:45:04.853Z,213.75
2018-07-04T13:46:05.834Z,219.38
2018-07-04T13:48:05.295Z,230.63
2018-07-04T13:49:05.305Z,236.25
2018-07-04T13:51:04.287Z,247.50
2018-07-04T13:52:04.280Z,253.13
2018-07-04T13:53:59.776Z,264.38
2018-07-04T13:54:59.274Z,275.63
2018-07-04T13:56:55.221Z,281.25
2018-07-04T13:57:55.241Z,292.50
2018-07-04T13:59:51.203Z,303.75
2018-07-04T14:00:52.210Z,309.38
2018-07-04T14:02:47.292Z,315.00
2018-07-04T14:05:06.162Z,326.25
2018-07-04T14:06:06.155Z,331.88
2018-07-04T14:08:03.234Z,343.13
2018-07-04T14:09:03.231Z,343.13
2018-07-04T14:11:01.709Z,354.38
2018-07-04T14:12:02.308Z,354.38
2018-07-04T14:13:57.576Z,360.00
2018-07-04T14:14:57.561Z,360.00
2018-07-04T14:16:55.563Z,360.00
2018-07-04T14:17:55.561Z,360.00
2018-07-04T14:19:53.526Z,360.00
2018-07-04T14:20:53.533Z,360.00
2018-07-04T14:22:49.513Z,360.00
2018-07-04T14:23:49.498Z,360.00
2018-07-04T14:25:49.464Z,360.00
2018-07-04T14:26:48.491Z,360.00
2018-07-04T14:28:47.175Z,365.63
2018-07-04T14:29:45.777Z,354.38
2018-07-04T14:31:44.219Z,354.38
2018-07-04T14:32:43.727Z,354.38
2018-07-04T14:34:44.748Z,348.75
2018-07-04T14:35:44.236Z,348.75
2018-07-04T14:37:42.001Z,354.38
2018-07-04T14:38:42.191Z,354.38
2018-07-04T14:40:39.156Z,354.38
2018-07-04T14:41:39.171Z,354.38
2018-07-04T14:43:37.656Z,354.38
2018-07-04T14:44:37.342Z,354.38
2018-07-04T14:46:33.312Z,360.00
2018-07-04T14:47:33.795Z,360.00
2018-07-04T14:49:29.269Z,365.63
2018-07-04T14:50:29.262Z,365.63
2018-07-04T14:52:27.812Z,365.63
2018-07-04T14:53:27.214Z,360.00
2018-07-04T14:55:26.704Z,354.38
2018-07-04T14:56:25.355Z,354.38
2018-07-04T14:58:24.342Z,348.75
2018-07-04T14:59:23.473Z,348.75
2018-07-04T15:01:20.946Z,348.75
2018-07-04T15:02:20.451Z,348.75
2018-07-04T15:04:19.996Z,343.13
2018-07-04T15:05:20.414Z,337.50
2018-07-04T15:07:18.416Z,331.88
2018-07-04T15:08:18.046Z,326.25
2018-07-04T15:10:30.517Z,320.63
2018-07-04T15:11:26.550Z,315.00
2018-07-04T15:13:49.424Z,309.38
2018-07-04T15:14:48.752Z,309.38
2018-07-04T15:16:46.041Z,303.75
2018-07-04T15:19:17.903Z,303.75
2018-07-04T15:20:07.267Z,303.75
2018-07-04T15:22:22.678Z,298.13
2018-07-04T15:23:08.181Z,298.13
2018-07-04T15:26:24.996Z,292.50
2018-07-04T15:27:24.131Z,292.50
2018-07-04T15:29:23.073Z,286.88
2018-07-04T15:30:22.134Z,286.88
2018-07-04T15:32:19.034Z,281.25
2018-07-04T15:33:19.065Z,281.25
2018-07-04T15:36:42.236Z,275.63
2018-07-04T15:37:19.208Z,275.63
2018-07-04T15:39:58.824Z,275.63
2018-07-04T15:40:55.806Z,275.63
2018-07-04T15:43:38.467Z,270.00
2018-07-04T15:44:14.796Z,275.63
2018-07-04T15:46:11.348Z,270.00
2018-07-04T15:47:10.994Z,270.00
2018-07-04T15:49:06.967Z,270.00
2018-07-04T15:50:06.949Z,270.00
2018-07-04T15:52:47.489Z,264.38
2018-07-04T15:53:43.735Z,264.38
2018-07-04T15:55:42.167Z,264.38
2018-07-04T15:56:41.676Z,264.38
2018-07-04T15:58:40.177Z,258.75
2018-07-04T15:59:40.227Z,258.75
2018-07-04T16:01:40.091Z,253.13
2018-07-04T16:02:40.113Z,247.50
2018-07-04T16:04:39.075Z,241.88
2018-07-04T16:05:38.166Z,241.88
2018-07-04T16:07:36.367Z,241.88
2018-07-04T16:08:36.289Z,241.88
2018-07-04T16:10:38.700Z,241.88
2018-07-04T16:11:38.147Z,241.88
2018-07-04T16:13:36.599Z,241.88
2018-07-04T16:14:37.278Z,241.88
2018-07-04T16:16:35.563Z,241.88
2018-07-04T16:17:35.092Z,247.50
2018-07-04T16:19:32.738Z,241.88
2018-07-04T16:20:33.289Z,241.88
2018-07-04T16:22:31.476Z,241.88
2018-07-04T16:23:31.422Z,241.88
2018-07-04T16:25:32.442Z,236.25
2018-07-04T16:26:31.859Z,236.25
2018-07-04T16:28:32.813Z,236.25
2018-07-04T16:29:33.235Z,236.25
2018-07-04T16:31:33.291Z,241.88
2018-07-04T16:32:33.757Z,236.25
2018-07-04T16:34:31.245Z,236.25
2018-07-04T16:35:31.734Z,236.25
2018-07-04T16:37:29.254Z,241.88
2018-07-04T16:38:28.730Z,241.88
2018-07-04T16:40:29.773Z,253.13
2018-07-04T16:41:29.204Z,253.13
2018-07-04T16:43:25.264Z,253.13
2018-07-04T16:44:25.225Z,253.13
2018-07-04T16:46:25.761Z,253.13
2018-07-04T16:47:25.695Z,253.13
2018-07-04T16:49:26.654Z,247.50
2018-07-04T16:50:26.231Z,241.88
2018-07-04T16:52:24.643Z,241.88
2018-07-04T16:53:24.193Z,241.88
2018-07-04T16:55:23.155Z,236.25
2018-07-04T16:56:25.242Z,236.25
2018-07-04T16:58:23.611Z,225.00
2018-07-04T16:59:23.601Z,225.00
2018-07-04T17:01:21.590Z,213.75
2018-07-04T17:02:22.054Z,213.75
2018-07-04T17:04:23.072Z,202.50
2018-07-04T17:05:22.197Z,202.50
2018-07-04T17:07:24.010Z,202.50
2018-07-04T17:08:22.708Z,191.25
2018-07-04T17:10:23.708Z,185.63
2018-07-04T17:11:23.211Z,180.00
2018-07-04T17:13:21.208Z,174.38
2018-07-04T17:14:21.174Z,168.75
2018-07-04T17:16:21.684Z,163.13
2018-07-04T17:17:21.745Z,157.50
2018-07-04T17:19:23.132Z,151.88
2018-07-04T17:20:22.092Z,151.88
2018-07-04T17:22:22.581Z,151.88
2018-07-04T17:23:22.634Z,151.88
2018-07-04T17:25:21.070Z,151.88
2018-07-04T17:26:20.547Z,151.88
2018-07-04T17:28:19.495Z,157.50
2018-07-04T17:29:19.421Z,168.75
2018-07-04T17:31:16.466Z,168.75
2018-07-04T17:32:17.380Z,174.38
2018-07-04T17:34:14.950Z,180.00
2018-07-04T17:35:14.618Z,180.00
2018-07-04T17:37:23.561Z,185.63
2018-07-04T17:38:21.064Z,180.00
2018-07-04T17:40:19.041Z,180.00
2018-07-04T17:41:20.041Z,180.00
2018-07-04T17:43:30.542Z,180.00
2018-07-04T17:44:30.566Z,174.38
2018-07-04T17:46:30.499Z,174.38
2018-07-04T17:47:30.259Z,185.63
2018-07-04T17:49:32.077Z,174.38
2018-07-04T17:50:30.603Z,174.38
2018-07-04T17:52:32.066Z,174.38
2018-07-04T17:53:32.194Z,180.00
2018-07-04T17:55:34.456Z,185.63
2018-07-04T17:56:29.977Z,168.75
2018-07-04T17:58:35.353Z,163.13
2018-07-04T17:59:36.868Z,157.50
2018-07-04T18:01:35.173Z,146.25
2018-07-04T18:02:35.172Z,140.63
2018-07-04T18:04:48.101Z,135.00
2018-07-04T18:08:16.761Z,135.00
2018-07-04T18:09:16.779Z,129.38
2018-07-04T18:11:35.463Z,123.75
2018-07-04T18:12:16.521Z,118.13
2018-07-04T18:14:22.470Z,112.50
2018-07-04T18:16:41.252Z,101.25
2018-07-04T18:17:42.244Z,101.25
2018-07-04T18:20:39.697Z,95.63
2018-07-04T18:22:37.871Z,90.00
2018-07-04T18:23:36.365Z,90.00
2018-07-04T18:25:33.392Z,84.38
2018-07-04T18:26:34.593Z,84.38
2018-07-04T18:28:32.459Z,84.38
2018-07-04T18:29:31.664Z,78.75
2018-07-04T18:31:32.092Z,73.13
2018-07-04T18:32:30.635Z,73.13
2018-07-04T18:34:43.297Z,73.13
2018-07-04T18:35:43.309Z,73.13
2018-07-04T18:38:05.843Z,67.50
2018-07-04T18:39:05.299Z,67.50
2018-07-04T18:41:05.109Z,67.50
2018-07-04T18:42:05.118Z,67.50
2018-07-04T18:44:15.572Z,73.13
2018-07-04T18:45:13.870Z,73.13
2018-07-04T18:47:20.285Z,73.13
2018-07-04T18:48:19.488Z,73.13
2018-07-04T18:50:20.752Z,73.13
2018-07-04T18:51:19.735Z,73.13
2018-07-04T18:53:17.053Z,84.38
2018-07-04T18:54:17.549Z,78.75
2018-07-04T18:56:28.084Z,61.88
2018-07-04T18:57:26.861Z,61.88
2018-07-04T18:59:50.434Z,61.88
2018-07-04T19:00:50.352Z,56.25
2018-07-04T19:02:48.356Z,56.25
2018-07-04T19:03:49.370Z,56.25
2018-07-04T19:05:45.337Z,50.63
2018-07-04T19:06:45.305Z,50.63
2018-07-04T19:08:42.815Z,45.00
2018-07-04T19:09:42.844Z,45.00
2018-07-04T19:11:40.734Z,39.38
2018-07-04T19:12:41.226Z,39.38
2018-07-04T19:14:40.348Z,33.75
2018-07-04T19:15:40.355Z,33.75
2018-07-04T19:17:37.501Z,33.75
2018-07-04T19:18:36.541Z,28.13
2018-07-04T19:20:35.981Z,28.13
2018-07-04T19:21:35.483Z,28.13
2018-07-04T19:23:35.372Z,28.13
2018-07-04T19:24:33.686Z,28.13
2018-07-04T19:26:31.588Z,22.50
2018-07-04T19:27:31.556Z,22.50
2018-07-04T19:29:31.534Z,22.50
2018-07-04T19:30:30.538Z,22.50
2018-07-04T19:32:28.210Z,16.88
2018-07-04T19:33:27.871Z,16.88
2018-07-04T19:35:26.791Z,11.25
2018-07-04T19:36:26.831Z,11.25
2018-07-04T19:38:24.262Z,11.25
2018-07-04T19:39:25.260Z,11.25
2018-07-04T19:41:22.727Z,11.25
2018-07-04T19:42:22.023Z,5.63
2018-07-04T19:44:19.341Z,5.63
2018-07-04T19:45:17.863Z,5.63
2018-07-04T19:47:13.844Z,5.63
2018-07-04T19:48:13.837Z,5.63
2018-07-04T19:50:09.807Z,5.63
2018-07-04T19:51:09.806Z,5.63
2018-07-04T19:53:05.760Z,5.63
2018-07-04T19:54:05.765Z,5.63
2018-07-04T19:56:01.778Z,0.00
2018-07-04T19:57:02.265Z,0.00
2018-07-04T19:58:57.667Z,0.00
2018-07-04T19:59:58.206Z,0.00
2018-07-04T20:01:53.687Z,0.00
2018-07-04T20:02:53.671Z,0.00
2018-07-04T20:04:49.654Z,0.00
2018-07-04T20:05:49.670Z,0.00
2018-07-04T20:07:46.640Z,0.00
2018-07-04T20:10:31.825Z,0.00
2018-07-04T20:12:45.178Z,0.00
2018-07-04T20:13:44.256Z,0.00
2018-07-04T20:16:10.324Z,0.00
2018-07-04T20:16:41.333Z,0.00
2018-07-04T20:18:36.310Z,0.00
2018-07-04T20:19:35.939Z,0.00
2018-07-04T20:21:32.498Z,0.00
2018-07-04T20:22:31.907Z,0.00
2018-07-04T20:24:27.854Z,0.00
2018-07-04T20:25:27.883Z,0.00
2018-07-04T20:27:23.855Z,0.00
2018-07-04T20:28:23.871Z,0.00
2018-07-04T20:30:20.854Z,0.00
2018-07-04T20:31:19.874Z,0.00
2018-07-04T20:33:18.371Z,0.00
2018-07-04T20:34:24.684Z,0.00
2018-07-04T20:36:14.194Z,0.00
2018-07-04T20:37:14.201Z,0.00
2018-07-04T20:39:11.169Z,0.00
2018-07-04T20:40:09.634Z,0.00
2018-07-04T20:42:06.607Z,0.00
2018-07-04T20:43:04.199Z,0.00
2018-07-04T20:45:00.210Z,0.00
2018-07-04T20:46:00.165Z,0.00
2018-07-04T20:47:56.681Z,0.00
2018-07-04T20:48:57.135Z,0.00
2018-07-04T20:50:54.090Z,0.00
2018-07-04T20:51:53.228Z,0.00
2018-07-04T20:53:55.629Z,0.00
2018-07-04T20:54:58.988Z,0.00
2018-07-04T20:56:55.206Z,0.00
2018-07-04T20:57:53.806Z,0.00
2018-07-04T20:59:49.789Z,0.00
2018-07-04T21:00:49.764Z,0.00
2018-07-04T21:02:46.741Z,0.00
2018-07-04T21:03:46.750Z,0.00
2018-07-04T21:05:43.223Z,0.00
2018-07-04T21:06:43.739Z,0.00
2018-07-04T21:08:39.604Z,0.00
2018-07-04T21:09:38.697Z,0.00
2018-07-04T21:11:35.662Z,0.00
2018-07-04T21:12:34.643Z,0.00
2018-07-04T21:14:32.527Z,0.00
2018-07-04T21:15:32.458Z,0.00
2018-07-04T21:17:30.644Z,0.00
2018-07-04T21:18:31.194Z,0.00
2018-07-04T21:20:29.860Z,0.00
2018-07-04T21:23:24.722Z,0.00
2018-07-04T21:24:25.904Z,0.00
2018-07-04T21:26:21.411Z,0.00
2018-07-04T21:27:32.424Z,0.00
2018-07-04T21:29:16.923Z,0.00
2018-07-04T21:30:16.440Z,0.00
2018-07-04T21:32:12.395Z,0.00
2018-07-04T21:33:12.393Z,0.00
2018-07-04T21:35:08.838Z,0.00
2018-07-04T21:36:08.342Z,0.00
2018-07-04T21:39:06.528Z,0.00
2018-07-04T21:41:23.488Z,0.00
2018-07-04T21:46:14.450Z,0.00
2018-07-04T21:47:14.473Z,0.00
2018-07-04T21:49:12.938Z,0.00
2018-07-04T21:51:50.943Z,0.00
2018-07-04T21:52:47.421Z,0.00
2018-07-04T21:55:52.884Z,0.00
2018-07-04T21:57:49.009Z,0.00
2018-07-04T22:00:51.059Z,0.00
2018-07-04T22:02:58.216Z,0.00
2018-07-04T22:03:58.482Z,0.00
2018-07-04T22:06:14.261Z,0.00
2018-07-04T22:07:06.680Z,0.00
2018-07-04T22:09:07.864Z,0.00
2018-07-04T22:10:07.871Z,0.00
2018-07-04T22:12:03.804Z,0.00
2018-07-04T22:13:03.825Z,0.00
2018-07-04T22:15:02.213Z,0.00
2018-07-04T22:15:59.806Z,0.00
2018-07-04T22:17:55.763Z,0.00
2018-07-04T22:18:55.765Z,0.00
2018-07-04T22:20:52.217Z,0.00
2018-07-04T22:21:51.775Z,0.00
2018-07-04T22:23:50.196Z,0.00
2018-07-04T22:24:50.840Z,0.00
2018-07-04T22:26:47.178Z,0.00
2018-07-04T22:27:46.201Z,0.00
2018-07-04T22:29:42.644Z,0.00
2018-07-04T22:30:42.675Z,0.00
2018-07-04T22:32:39.629Z,0.00
2018-07-04T22:33:40.135Z,0.00
2018-07-04T22:35:35.380Z,0.00
2018-07-04T22:36:35.388Z,0.00
2018-07-04T22:38:31.304Z,0.00
2018-07-04T22:39:31.856Z,0.00
2018-07-04T22:41:28.288Z,0.00
2018-07-04T22:42:28.292Z,0.00
2018-07-04T22:44:24.259Z,0.00
2018-07-04T22:45:23.514Z,0.00
2018-07-04T22:47:19.460Z,0.00
2018-07-04T22:48:19.449Z,0.00
2018-07-04T22:50:16.413Z,0.00
2018-07-04T22:51:15.928Z,0.00
2018-07-04T22:53:11.363Z,0.00
2018-07-04T22:54:11.870Z,0.00
2018-07-04T22:56:07.311Z,0.00
2018-07-04T22:57:07.321Z,0.00
2018-07-04T22:59:03.303Z,0.00
2018-07-04T23:00:03.779Z,0.00
2018-07-04T23:01:59.755Z,0.00
2018-07-04T23:02:59.230Z,0.00
2018-07-04T23:04:56.196Z,0.00
2018-07-04T23:05:55.255Z,0.00
2018-07-04T23:07:51.708Z,0.00
2018-07-04T23:08:51.199Z,0.00
2018-07-04T23:10:47.663Z,0.00
2018-07-04T23:11:47.204Z,0.00
2018-07-04T23:13:44.145Z,0.00
2018-07-04T23:14:43.154Z,0.00
2018-07-04T23:16:39.623Z,0.00
2018-07-04T23:17:39.117Z,0.00
2018-07-04T23:19:35.584Z,0.00
2018-07-04T23:20:35.588Z,0.00
2018-07-04T23:22:33.223Z,0.00
2018-07-04T23:23:33.229Z,0.00
2018-07-04T23:25:29.176Z,0.00
2018-07-04T23:26:29.197Z,0.00
2018-07-04T23:28:25.184Z,0.00
2018-07-04T23:31:21.122Z,0.00
2018-07-04T23:32:21.103Z,0.00
2018-07-04T23:34:17.097Z,0.00
2018-07-04T23:35:17.067Z,0.00
2018-07-04T23:37:14.050Z,0.00
2018-07-04T23:38:13.036Z,0.00
2018-07-04T23:40:11.427Z,0.00
2018-07-04T23:41:09.558Z,0.00
2018-07-04T23:43:05.962Z,0.00
2018-07-04T23:44:04.981Z,0.00
2018-07-04T23:46:03.449Z,0.00
2018-07-04T23:47:00.949Z,0.00
2018-07-04T23:48:56.908Z,0.00
2018-07-04T23:49:56.904Z,0.00
2018-07-04T23:51:53.856Z,0.00
2018-07-04T23:52:52.835Z,0.00
2018-07-04T23:54:49.811Z,0.00
2018-07-04T23:55:48.828Z,0.00
2018-07-04T23:57:44.788Z,0.00
2018-07-04T23:58:44.801Z,0.00
